Green Bay (GRB/KGRB)

Map

Information

Location
Green Bay, WI
Local Time
19:18 / 7:18 pm
GMT Time
00:18 / 12:18 am
Gates
No FAA reported delays
METAR KGRB 252353Z 14007KT 10SM OVC110 18/10 A2959 RMK AO2 RAB2256E19 SLP021 P0000 60000 T01780100 10228 20172 57002
TAF KGRB 252340Z 2600/2624 13010KT P6SM OVC090 FM260500 12008G14KT P6SM VCSH OVC050 TEMPO 2608/2612 5SM -SHRA BR OVC025 FM261200 15009G16KT 5SM SHRA OVC020 FM261500 17011G19KT 3SM SHRA OVC013 FM262100 20010G17KT 5SM SHRA OVC022